createdAt,value
2018-07-24T00:01:09.000Z,15.61
2018-07-24T00:03:37.119Z,15.65
2018-07-24T00:06:05.272Z,15.70
2018-07-24T00:08:33.294Z,15.64
2018-07-24T00:11:01.520Z,15.67
2018-07-24T00:13:29.563Z,15.74
2018-07-24T00:15:57.656Z,15.76
2018-07-24T00:18:25.739Z,15.80
2018-07-24T00:20:53.756Z,15.84
2018-07-24T00:23:21.987Z,15.77
2018-07-24T00:25:50.045Z,15.80
2018-07-24T00:28:18.113Z,15.86
2018-07-24T00:30:46.144Z,15.88
2018-07-24T00:33:14.178Z,15.91
2018-07-24T00:35:42.206Z,15.86
2018-07-24T00:38:10.264Z,15.92
2018-07-24T00:40:38.323Z,15.94
2018-07-24T00:43:10.055Z,15.95
2018-07-24T00:45:38.201Z,15.89
2018-07-24T00:48:06.330Z,15.90
2018-07-24T00:50:34.435Z,15.92
2018-07-24T00:53:02.559Z,15.91
2018-07-24T00:55:30.564Z,15.90
2018-07-24T00:57:58.639Z,15.89
2018-07-24T01:00:26.772Z,15.91
2018-07-24T01:02:54.851Z,15.93
2018-07-24T01:05:22.849Z,15.94
2018-07-24T01:07:50.909Z,15.92
2018-07-24T01:10:18.933Z,15.83
2018-07-24T01:12:46.928Z,15.82
2018-07-24T01:15:15.048Z,15.89
2018-07-24T01:17:43.099Z,15.88
2018-07-24T01:20:11.164Z,15.84
2018-07-24T01:22:39.290Z,15.81
2018-07-24T01:25:07.434Z,15.83
2018-07-24T01:27:35.452Z,15.84
2018-07-24T01:30:03.619Z,15.80
2018-07-24T01:32:31.807Z,15.79
2018-07-24T01:34:59.892Z,15.79
2018-07-24T01:37:28.000Z,15.80
2018-07-24T01:39:56.015Z,15.85
2018-07-24T01:42:24.051Z,15.88
2018-07-24T01:44:52.049Z,15.86
2018-07-24T01:47:20.129Z,15.86
2018-07-24T01:49:48.422Z,15.90
2018-07-24T01:52:16.431Z,15.84
2018-07-24T01:54:44.523Z,15.90
2018-07-24T01:57:12.685Z,15.93
2018-07-24T01:59:40.761Z,15.92
2018-07-24T02:02:08.868Z,15.92
2018-07-24T02:04:36.919Z,15.91
2018-07-24T02:07:05.009Z,15.91
2018-07-24T02:09:33.084Z,15.89
2018-07-24T02:12:01.165Z,15.85
2018-07-24T02:14:29.249Z,15.85
2018-07-24T02:16:57.344Z,15.84
2018-07-24T02:19:25.365Z,15.83
2018-07-24T02:21:53.388Z,15.84
2018-07-24T02:24:21.496Z,15.81
2018-07-24T02:26:49.577Z,15.81
2018-07-24T02:29:17.633Z,15.81
2018-07-24T02:31:45.811Z,15.84
2018-07-24T02:34:13.913Z,15.78
2018-07-24T02:36:42.022Z,15.83
2018-07-24T02:39:12.360Z,15.87
2018-07-24T02:41:40.444Z,15.89
2018-07-24T02:44:08.609Z,15.87
2018-07-24T02:46:36.807Z,15.87
2018-07-24T02:49:05.023Z,15.84
2018-07-24T02:51:33.319Z,15.80
2018-07-24T02:54:01.466Z,15.81
2018-07-24T02:56:29.840Z,15.79
2018-07-24T02:58:57.926Z,15.76
2018-07-24T03:01:26.444Z,15.76
2018-07-24T03:03:54.761Z,15.76
2018-07-24T03:06:23.029Z,15.74
2018-07-24T03:08:51.253Z,15.71
2018-07-24T03:11:19.442Z,15.74
2018-07-24T03:13:47.704Z,15.75
2018-07-24T03:16:16.027Z,15.76
2018-07-24T03:18:44.143Z,15.72
2018-07-24T03:21:12.228Z,15.71
2018-07-24T03:23:40.412Z,15.74
2018-07-24T03:26:08.455Z,15.71
2018-07-24T03:28:36.657Z,15.68
2018-07-24T03:31:04.750Z,15.70
2018-07-24T03:33:32.950Z,15.66
2018-07-24T03:36:01.125Z,15.66
2018-07-24T03:38:29.264Z,15.61
2018-07-24T03:40:57.319Z,15.64
2018-07-24T03:43:25.451Z,15.67
2018-07-24T03:45:53.527Z,15.64
2018-07-24T03:48:21.618Z,15.68
2018-07-24T03:50:49.742Z,15.67
2018-07-24T03:53:17.905Z,15.74
2018-07-24T03:55:45.981Z,15.76
2018-07-24T03:58:14.100Z,15.76
2018-07-24T04:00:42.271Z,15.79
2018-07-24T04:03:10.403Z,15.72
2018-07-24T04:05:38.455Z,15.70
2018-07-24T04:08:06.502Z,15.71
2018-07-24T04:10:34.752Z,15.76
2018-07-24T04:13:03.024Z,15.75
2018-07-24T04:15:31.223Z,15.80
2018-07-24T04:17:59.452Z,15.81
2018-07-24T04:20:27.575Z,15.83
2018-07-24T04:22:55.811Z,15.87
2018-07-24T04:25:23.962Z,15.89
2018-07-24T04:27:52.166Z,15.94
2018-07-24T04:30:20.309Z,16.00
2018-07-24T04:32:48.532Z,16.05
2018-07-24T04:35:16.771Z,16.09
2018-07-24T04:37:44.997Z,16.12
2018-07-24T04:40:13.166Z,16.24
2018-07-24T04:42:41.446Z,16.25
2018-07-24T04:45:09.709Z,16.27
2018-07-24T04:47:37.892Z,16.32
2018-07-24T04:50:06.068Z,16.40
2018-07-24T04:52:34.134Z,16.47
2018-07-24T04:55:02.240Z,16.53
2018-07-24T04:57:30.723Z,16.62
2018-07-24T04:59:58.886Z,16.70
2018-07-24T05:02:28.006Z,16.73
2018-07-24T05:04:56.393Z,16.72
2018-07-24T05:07:24.732Z,16.81
2018-07-24T05:09:52.881Z,16.88
2018-07-24T05:12:20.950Z,16.93
2018-07-24T05:14:49.297Z,17.03
2018-07-24T05:17:17.401Z,17.09
2018-07-24T05:19:45.696Z,17.11
2018-07-24T05:22:13.898Z,17.16
2018-07-24T05:24:42.273Z,17.21
2018-07-24T05:27:10.821Z,17.22
2018-07-24T05:29:39.172Z,17.25
2018-07-24T05:32:07.973Z,17.24
2018-07-24T05:34:36.286Z,17.25
2018-07-24T05:37:04.579Z,17.25
2018-07-24T05:39:32.864Z,17.26
2018-07-24T05:42:01.257Z,17.26
2018-07-24T05:44:29.845Z,17.30
2018-07-24T05:46:58.147Z,17.30
2018-07-24T05:49:26.323Z,17.34
2018-07-24T05:51:54.611Z,17.49
2018-07-24T05:54:22.753Z,17.56
2018-07-24T05:56:50.854Z,17.63
2018-07-24T05:59:19.130Z,17.70
2018-07-24T06:01:47.263Z,17.79
2018-07-24T06:04:15.631Z,18.06
2018-07-24T06:06:43.911Z,18.20
2018-07-24T06:09:12.026Z,18.29
2018-07-24T06:11:40.362Z,18.31
2018-07-24T06:14:08.692Z,18.36
2018-07-24T06:16:37.336Z,18.41
2018-07-24T06:19:05.578Z,18.56
2018-07-24T06:21:33.729Z,18.72
2018-07-24T06:24:02.137Z,18.76
2018-07-24T06:26:30.246Z,18.72
2018-07-24T06:28:58.388Z,18.67
2018-07-24T06:31:26.527Z,18.85
2018-07-24T06:33:54.754Z,19.05
2018-07-24T06:36:22.922Z,19.03
2018-07-24T06:38:51.022Z,19.04
2018-07-24T06:41:19.175Z,19.06
2018-07-24T06:43:47.310Z,19.24
2018-07-24T06:46:15.788Z,19.46
2018-07-24T06:48:44.145Z,19.60
2018-07-24T06:51:12.513Z,19.72
2018-07-24T06:53:40.753Z,19.72
2018-07-24T06:56:08.989Z,19.71
2018-07-24T06:58:37.071Z,19.40
2018-07-24T07:01:05.122Z,19.42
2018-07-24T07:03:33.206Z,19.55
2018-07-24T07:06:01.453Z,19.66
2018-07-24T07:08:29.628Z,19.67
2018-07-24T07:10:57.902Z,19.97
2018-07-24T07:13:26.297Z,20.24
2018-07-24T07:15:54.371Z,20.14
2018-07-24T07:18:22.457Z,20.07
2018-07-24T07:20:50.571Z,19.93
2018-07-24T07:23:18.802Z,19.97
2018-07-24T07:25:47.017Z,20.16
2018-07-24T07:28:15.265Z,20.03
2018-07-24T07:30:43.511Z,20.16
2018-07-24T07:33:11.826Z,20.08
2018-07-24T07:35:40.099Z,19.94
2018-07-24T07:38:08.425Z,19.80
2018-07-24T07:40:36.722Z,19.63
2018-07-24T07:43:05.198Z,19.54
2018-07-24T07:45:33.385Z,19.38
2018-07-24T07:48:01.553Z,19.27
2018-07-24T07:50:29.955Z,19.34
2018-07-24T07:52:58.267Z,19.44
2018-07-24T07:55:26.517Z,19.55
2018-07-24T07:57:54.864Z,19.89
2018-07-24T08:00:23.440Z,19.97
2018-07-24T08:02:52.000Z,20.11
2018-07-24T08:05:20.193Z,20.18
2018-07-24T08:07:48.459Z,20.18
2018-07-24T08:10:16.805Z,20.06
2018-07-24T08:12:45.346Z,20.02
2018-07-24T08:15:13.676Z,20.06
2018-07-24T08:17:41.984Z,20.16
2018-07-24T08:20:10.318Z,20.51
2018-07-24T08:22:38.617Z,20.91
2018-07-24T08:25:07.627Z,21.08
2018-07-24T08:27:37.642Z,21.18
2018-07-24T08:30:07.360Z,21.47
2018-07-24T08:32:37.570Z,21.61
2018-07-24T08:35:07.673Z,21.63
2018-07-24T08:37:38.596Z,21.31
2018-07-24T08:40:07.068Z,21.33
2018-07-24T08:42:38.066Z,21.48
2018-07-24T08:45:18.619Z,21.58
2018-07-24T08:47:47.251Z,21.70
2018-07-24T08:50:16.966Z,21.91
2018-07-24T08:52:49.290Z,22.08
2018-07-24T08:55:21.374Z,22.44
2018-07-24T08:57:50.922Z,22.44
2018-07-24T09:00:19.309Z,22.60
2018-07-24T09:02:47.663Z,22.62
2018-07-24T09:05:16.061Z,22.49
2018-07-24T09:07:44.391Z,22.43
2018-07-24T09:10:12.787Z,22.59
2018-07-24T09:12:41.023Z,22.50
2018-07-24T09:15:09.262Z,22.59
2018-07-24T09:17:37.469Z,22.69
2018-07-24T09:20:05.677Z,22.65
2018-07-24T09:22:34.011Z,22.99
2018-07-24T09:25:02.443Z,22.86
2018-07-24T09:27:30.815Z,23.15
2018-07-24T09:29:59.476Z,23.63
2018-07-24T09:32:27.963Z,23.95
2018-07-24T09:34:56.522Z,23.44
2018-07-24T09:37:27.787Z,22.97
2018-07-24T09:39:56.708Z,22.75
2018-07-24T09:42:25.075Z,22.37
2018-07-24T09:44:53.966Z,22.20
2018-07-24T09:47:22.597Z,22.51
2018-07-24T09:49:52.803Z,22.98
2018-07-24T09:52:22.641Z,23.09
2018-07-24T09:54:51.163Z,23.21
2018-07-24T09:57:20.771Z,23.52
2018-07-24T09:59:50.540Z,23.62
2018-07-24T10:02:19.251Z,24.29
2018-07-24T10:04:47.934Z,24.59
2018-07-24T10:07:16.860Z,25.87
2018-07-24T10:09:45.782Z,26.27
2018-07-24T10:12:14.651Z,25.25
2018-07-24T10:14:44.148Z,24.51
2018-07-24T10:17:12.659Z,24.57
2018-07-24T10:19:41.230Z,24.47
2018-07-24T10:22:09.730Z,24.52
2018-07-24T10:24:38.226Z,23.92
2018-07-24T10:27:06.779Z,23.44
2018-07-24T10:29:35.116Z,23.45
2018-07-24T10:32:05.390Z,23.53
2018-07-24T10:34:33.864Z,23.59
2018-07-24T10:37:02.469Z,23.81
2018-07-24T10:39:31.136Z,24.02
2018-07-24T10:41:59.549Z,24.36
2018-07-24T10:44:28.910Z,24.16
2018-07-24T10:46:57.223Z,23.87
2018-07-24T10:49:25.589Z,23.84
2018-07-24T10:51:53.969Z,23.90
2018-07-24T10:54:22.345Z,23.83
2018-07-24T10:56:50.586Z,23.99
2018-07-24T10:59:18.914Z,23.72
2018-07-24T11:01:47.326Z,23.83
2018-07-24T11:04:15.664Z,23.80
2018-07-24T11:06:44.030Z,23.83
2018-07-24T11:09:12.309Z,23.96
2018-07-24T11:11:40.731Z,23.94
2018-07-24T11:14:09.193Z,24.19
2018-07-24T11:16:37.563Z,24.44
2018-07-24T11:19:05.781Z,25.62
2018-07-24T11:21:34.073Z,26.06
2018-07-24T11:24:02.532Z,26.58
2018-07-24T11:26:31.364Z,26.69
2018-07-24T11:28:59.683Z,26.02
2018-07-24T11:31:28.061Z,26.01
2018-07-24T11:33:56.496Z,26.47
2018-07-24T11:36:25.021Z,26.25
2018-07-24T11:38:53.340Z,25.75
2018-07-24T11:41:21.806Z,25.99
2018-07-24T11:43:50.382Z,26.80
2018-07-24T11:46:18.637Z,27.12
2018-07-24T11:48:46.924Z,26.87
2018-07-24T11:51:15.238Z,26.07
2018-07-24T11:53:43.593Z,25.66
2018-07-24T11:56:11.838Z,25.28
2018-07-24T11:58:40.226Z,25.14
2018-07-24T12:01:08.585Z,25.35
2018-07-24T12:03:36.914Z,25.44
2018-07-24T12:06:05.293Z,25.32
2018-07-24T12:08:33.668Z,25.57
2018-07-24T12:11:02.004Z,25.59
2018-07-24T12:13:30.359Z,25.13
2018-07-24T12:15:58.732Z,24.91
2018-07-24T12:18:27.067Z,24.10
2018-07-24T12:20:55.421Z,23.64
2018-07-24T12:23:23.736Z,23.09
2018-07-24T12:25:52.539Z,23.11
2018-07-24T12:28:20.831Z,23.19
2018-07-24T12:30:49.278Z,23.26
2018-07-24T12:33:17.906Z,23.31
2018-07-24T12:35:46.315Z,23.56
2018-07-24T12:38:14.935Z,23.76
2018-07-24T12:40:43.187Z,24.03
2018-07-24T12:43:11.560Z,24.59
2018-07-24T12:45:39.735Z,24.92
2018-07-24T12:48:08.003Z,24.65
2018-07-24T12:50:36.354Z,24.36
2018-07-24T12:53:05.265Z,23.89
2018-07-24T12:55:33.719Z,22.79
2018-07-24T12:58:02.207Z,22.77
2018-07-24T13:00:30.445Z,22.30
2018-07-24T13:02:59.031Z,22.38
2018-07-24T13:05:27.405Z,22.44
2018-07-24T13:07:55.896Z,22.76
2018-07-24T13:10:24.011Z,22.75
2018-07-24T13:12:52.413Z,22.76
2018-07-24T13:15:20.625Z,23.02
2018-07-24T13:17:48.981Z,23.27
2018-07-24T13:20:17.344Z,23.23
2018-07-24T13:22:45.584Z,23.32
2018-07-24T13:25:13.926Z,23.46
2018-07-24T13:27:42.147Z,23.30
2018-07-24T13:30:10.215Z,23.06
2018-07-24T13:32:38.410Z,22.98
2018-07-24T13:35:06.671Z,22.84
2018-07-24T13:37:34.856Z,22.87
2018-07-24T13:40:03.213Z,22.80
2018-07-24T13:42:31.503Z,22.69
2018-07-24T13:44:59.827Z,22.75
2018-07-24T13:47:28.280Z,22.86
2018-07-24T13:49:56.436Z,22.76
2018-07-24T13:52:24.481Z,22.93
2018-07-24T13:54:52.623Z,23.18
2018-07-24T13:57:20.879Z,23.17
2018-07-24T13:59:49.345Z,23.55
2018-07-24T14:02:17.637Z,23.56
2018-07-24T14:04:46.032Z,23.37
2018-07-24T14:07:14.681Z,23.19
2018-07-24T14:09:43.176Z,23.24
2018-07-24T14:12:11.577Z,23.28
2018-07-24T14:14:39.851Z,23.15
2018-07-24T14:17:08.976Z,23.03
2018-07-24T14:19:37.597Z,22.99
2018-07-24T14:22:05.928Z,23.10
2018-07-24T14:24:34.230Z,23.19
2018-07-24T14:27:02.569Z,23.22
2018-07-24T14:29:31.168Z,23.23
2018-07-24T14:31:59.647Z,23.25
2018-07-24T14:34:28.083Z,23.65
2018-07-24T14:36:56.688Z,23.67
2018-07-24T14:39:25.047Z,23.97
2018-07-24T14:41:53.489Z,23.77
2018-07-24T14:44:21.902Z,23.75
2018-07-24T14:46:50.283Z,23.58
2018-07-24T14:49:18.529Z,23.44
2018-07-24T14:51:46.703Z,23.18
2018-07-24T14:54:14.970Z,23.21
2018-07-24T14:56:43.271Z,23.20
2018-07-24T14:59:12.984Z,23.23
2018-07-24T15:01:43.182Z,23.48
2018-07-24T15:04:13.223Z,23.70
2018-07-24T15:06:45.580Z,24.00
2018-07-24T15:09:13.841Z,24.20
2018-07-24T15:11:58.993Z,24.10
2018-07-24T15:14:38.525Z,23.95
2018-07-24T15:17:07.268Z,24.00
2018-07-24T15:19:35.417Z,23.99
2018-07-24T15:22:03.547Z,24.24
2018-07-24T15:24:31.720Z,24.33
2018-07-24T15:26:59.966Z,24.39
2018-07-24T15:29:28.911Z,24.69
2018-07-24T15:31:57.079Z,24.63
2018-07-24T15:34:25.282Z,24.52
2018-07-24T15:36:53.329Z,24.48
2018-07-24T15:39:21.969Z,24.16
2018-07-24T15:41:50.209Z,24.26
2018-07-24T15:44:18.271Z,24.01
2018-07-24T15:46:46.546Z,23.70
2018-07-24T15:49:14.736Z,23.45
2018-07-24T15:51:42.872Z,23.23
2018-07-24T15:54:11.210Z,22.95
2018-07-24T15:56:39.571Z,23.00
2018-07-24T15:59:07.836Z,22.70
2018-07-24T16:01:35.921Z,22.72
2018-07-24T16:04:04.219Z,22.96
2018-07-24T16:06:32.323Z,22.76
2018-07-24T16:09:00.572Z,22.64
2018-07-24T16:11:28.765Z,22.56
2018-07-24T16:13:56.904Z,22.48
2018-07-24T16:16:25.208Z,22.30
2018-07-24T16:18:53.587Z,22.28
2018-07-24T16:21:21.905Z,21.99
2018-07-24T16:23:50.296Z,22.01
2018-07-24T16:26:18.614Z,22.11
2018-07-24T16:28:46.896Z,21.99
2018-07-24T16:31:15.438Z,21.80
2018-07-24T16:33:43.760Z,21.60
2018-07-24T16:36:12.117Z,21.51
2018-07-24T16:38:40.590Z,21.34
2018-07-24T16:41:09.052Z,21.22
2018-07-24T16:43:37.397Z,21.00
2018-07-24T16:46:06.145Z,20.92
2018-07-24T16:48:34.389Z,20.87
2018-07-24T16:51:02.798Z,20.74
2018-07-24T16:53:31.584Z,20.54
2018-07-24T16:55:59.950Z,20.53
2018-07-24T16:58:28.377Z,20.51
2018-07-24T17:00:56.637Z,20.41
2018-07-24T17:03:24.811Z,20.31
2018-07-24T17:05:53.047Z,20.21
2018-07-24T17:08:21.377Z,20.17
2018-07-24T17:10:49.590Z,20.13
2018-07-24T17:13:17.995Z,20.09
2018-07-24T17:15:46.113Z,20.09
2018-07-24T17:18:14.396Z,20.11
2018-07-24T17:20:42.447Z,19.99
2018-07-24T17:23:10.613Z,19.93
2018-07-24T17:25:38.838Z,19.87
2018-07-24T17:28:07.089Z,19.83
2018-07-24T17:30:35.298Z,19.77
2018-07-24T17:33:03.486Z,19.70
2018-07-24T17:35:32.002Z,19.72
2018-07-24T17:38:00.179Z,19.54
2018-07-24T17:40:28.418Z,19.53
2018-07-24T17:42:56.808Z,19.49
2018-07-24T17:45:25.503Z,19.41
2018-07-24T17:47:54.122Z,19.31
2018-07-24T17:50:23.228Z,19.23
2018-07-24T17:52:51.714Z,19.23
2018-07-24T17:55:20.176Z,19.11
2018-07-24T17:57:48.774Z,19.03
2018-07-24T18:00:18.375Z,18.98
2018-07-24T18:02:47.647Z,18.97
2018-07-24T18:05:17.669Z,18.91
2018-07-24T18:07:46.291Z,18.92
2018-07-24T18:10:15.599Z,18.92
2018-07-24T18:12:43.918Z,18.91
2018-07-24T18:15:12.358Z,18.86
2018-07-24T18:17:40.794Z,18.85
2018-07-24T18:20:09.405Z,18.79
2018-07-24T18:22:37.833Z,18.81
2018-07-24T18:25:06.205Z,18.79
2018-07-24T18:27:34.504Z,18.72
2018-07-24T18:30:02.649Z,18.76
2018-07-24T18:32:30.948Z,18.71
2018-07-24T18:34:59.276Z,18.75
2018-07-24T18:37:27.725Z,18.72
2018-07-24T18:39:56.283Z,18.72
2018-07-24T18:42:24.684Z,18.67
2018-07-24T18:44:53.138Z,18.69
2018-07-24T18:47:21.496Z,18.70
2018-07-24T18:49:49.794Z,18.77
2018-07-24T18:52:18.420Z,18.76
2018-07-24T18:54:46.927Z,18.73
2018-07-24T18:57:15.177Z,18.70
2018-07-24T18:59:43.455Z,18.71
2018-07-24T19:02:11.938Z,18.63
2018-07-24T19:04:40.644Z,18.56
2018-07-24T19:07:09.068Z,18.58
2018-07-24T19:09:37.348Z,18.47
2018-07-24T19:12:05.706Z,18.49
2018-07-24T19:14:33.853Z,18.45
2018-07-24T19:17:02.332Z,18.44
2018-07-24T19:19:30.579Z,18.45
2018-07-24T19:21:58.843Z,18.45
2018-07-24T19:24:27.170Z,18.43
2018-07-24T19:26:55.559Z,18.43
2018-07-24T19:29:23.816Z,18.32
2018-07-24T19:31:52.056Z,18.33
2018-07-24T19:34:20.339Z,18.39
2018-07-24T19:36:48.616Z,18.46
2018-07-24T19:39:16.774Z,18.42
2018-07-24T19:41:45.010Z,18.42
2018-07-24T19:44:13.375Z,18.48
2018-07-24T19:46:41.632Z,18.48
2018-07-24T19:49:10.072Z,18.44
2018-07-24T19:51:38.411Z,18.43
2018-07-24T19:54:06.667Z,18.45
2018-07-24T19:56:35.097Z,18.42
2018-07-24T19:59:03.521Z,18.41
2018-07-24T20:01:31.827Z,18.42
2018-07-24T20:04:00.122Z,18.41
2018-07-24T20:06:28.318Z,18.40
2018-07-24T20:08:56.571Z,18.38
2018-07-24T20:11:24.784Z,18.38
2018-07-24T20:13:53.194Z,18.37
2018-07-24T20:16:21.480Z,18.38
2018-07-24T20:18:49.959Z,18.40
2018-07-24T20:21:18.200Z,18.42
2018-07-24T20:23:46.906Z,18.38
2018-07-24T20:26:15.064Z,18.41
2018-07-24T20:28:43.563Z,18.39
2018-07-24T20:31:11.686Z,18.37
2018-07-24T20:33:39.859Z,18.38
2018-07-24T20:36:08.111Z,18.32
2018-07-24T20:38:36.252Z,18.28
2018-07-24T20:41:04.391Z,18.23
2018-07-24T20:43:32.607Z,18.18
2018-07-24T20:46:00.801Z,18.07
2018-07-24T20:48:28.884Z,18.05
2018-07-24T20:50:57.201Z,18.06
2018-07-24T20:53:25.309Z,18.03
2018-07-24T20:55:53.372Z,18.02
2018-07-24T20:58:21.400Z,18.06
2018-07-24T21:00:49.515Z,18.08
2018-07-24T21:03:17.646Z,18.09
2018-07-24T21:05:45.708Z,18.07
2018-07-24T21:08:13.806Z,18.08
2018-07-24T21:10:42.141Z,18.04
2018-07-24T21:13:10.262Z,18.03
2018-07-24T21:15:38.297Z,18.03
2018-07-24T21:18:06.502Z,18.03
2018-07-24T21:20:34.584Z,18.02
2018-07-24T21:23:02.660Z,18.03
2018-07-24T21:25:30.807Z,18.02
2018-07-24T21:27:59.129Z,18.03
2018-07-24T21:30:27.275Z,18.03
2018-07-24T21:32:55.440Z,18.04
2018-07-24T21:35:23.555Z,18.01
2018-07-24T21:37:51.641Z,18.02
2018-07-24T21:40:19.832Z,18.03
2018-07-24T21:42:47.846Z,18.00
2018-07-24T21:45:15.956Z,18.02
2018-07-24T21:47:44.021Z,18.02
2018-07-24T21:50:12.076Z,18.02
2018-07-24T21:52:40.204Z,18.01
2018-07-24T21:55:08.234Z,18.03
2018-07-24T21:57:36.309Z,18.04
2018-07-24T22:00:06.669Z,18.04
2018-07-24T22:02:34.746Z,18.01
2018-07-24T22:05:02.785Z,17.96
2018-07-24T22:07:30.850Z,17.99
2018-07-24T22:09:58.863Z,17.97
2018-07-24T22:12:26.961Z,17.91
2018-07-24T22:14:55.048Z,17.82
2018-07-24T22:17:23.173Z,17.78
2018-07-24T22:19:51.194Z,17.73
2018-07-24T22:22:19.228Z,17.72
2018-07-24T22:24:47.373Z,17.65
2018-07-24T22:27:15.364Z,17.55
2018-07-24T22:29:43.369Z,17.46
2018-07-24T22:32:11.438Z,17.43
2018-07-24T22:34:39.554Z,17.38
2018-07-24T22:37:07.731Z,17.28
2018-07-24T22:39:35.817Z,17.24
2018-07-24T22:42:03.873Z,17.26
2018-07-24T22:44:31.964Z,17.25
2018-07-24T22:47:00.070Z,17.23
2018-07-24T22:49:28.151Z,17.21
2018-07-24T22:51:56.264Z,17.20
2018-07-24T22:54:24.339Z,17.14
2018-07-24T22:56:52.385Z,17.13
2018-07-24T22:59:20.436Z,17.12
2018-07-24T23:01:48.516Z,17.10
2018-07-24T23:04:16.560Z,17.10
2018-07-24T23:06:44.613Z,17.07
2018-07-24T23:09:12.780Z,17.08
2018-07-24T23:11:40.957Z,17.06
2018-07-24T23:14:09.062Z,17.04
2018-07-24T23:16:37.281Z,17.00
2018-07-24T23:19:05.553Z,17.02
2018-07-24T23:21:33.615Z,17.00
2018-07-24T23:24:01.789Z,16.96
2018-07-24T23:26:29.884Z,16.93
2018-07-24T23:28:57.879Z,16.92
2018-07-24T23:31:25.921Z,16.93
2018-07-24T23:33:53.955Z,16.94
2018-07-24T23:36:21.968Z,16.92
2018-07-24T23:38:50.028Z,16.91
2018-07-24T23:41:18.170Z,16.94
2018-07-24T23:43:46.347Z,16.97
2018-07-24T23:46:14.446Z,16.97
2018-07-24T23:48:42.601Z,17.04
2018-07-24T23:51:10.708Z,17.08
2018-07-24T23:53:38.809Z,17.10
2018-07-24T23:56:06.978Z,17.04
2018-07-24T23:58:35.057Z,17.08
